Time;durP1;ratioP1;P1;durP2;ratioP2;P2;SDS_P1;SDS_P2;PMS_P1;PMS_P2;Temp;Humidity;BMP_temperature;BMP_pressure;BME280_temperature;BME280_humidity;BME280_pressure;Samples;Min_cycle;Max_cycle;Signal;HPM_P1;HPM_P2
2021/10/20 00:02:05;;;;;;;10.93;7.57;;;17.40;77.20;;;;;;5028028;28;20025;-67
2021/10/20 00:04:31;;;;;;;11.68;7.38;;;17.40;77.30;;;;;;5026592;28;20022;-67
2021/10/20 00:06:59;;;;;;;11.65;7.30;;;17.40;77.30;;;;;;5026359;28;20034;-67
2021/10/20 00:09:25;;;;;;;10.10;5.43;;;17.40;77.40;;;;;;5028592;28;20033;-67
2021/10/20 00:11:50;;;;;;;10.68;7.65;;;17.40;77.50;;;;;;5027495;28;20643;-67
2021/10/20 00:14:16;;;;;;;13.52;8.57;;;17.40;77.40;;;;;;5029751;28;20160;-67
2021/10/20 00:16:43;;;;;;;11.38;8.30;;;17.40;77.40;;;;;;5026161;28;20116;-67
2021/10/20 00:19:09;;;;;;;12.93;8.00;;;17.40;77.30;;;;;;5025293;28;20508;-67
2021/10/20 00:21:35;;;;;;;13.95;8.23;;;17.40;77.30;;;;;;5026059;28;20057;-67
2021/10/20 00:24:01;;;;;;;12.43;7.78;;;17.40;78.30;;;;;;5028023;28;20025;-67
2021/10/20 00:26:27;;;;;;;11.77;7.40;;;17.40;77.40;;;;;;5028398;28;20439;-67
2021/10/20 00:28:53;;;;;;;13.38;7.85;;;17.40;77.50;;;;;;5027500;28;20104;-67
2021/10/20 00:31:19;;;;;;;11.13;6.80;;;17.50;77.60;;;;;;5026627;28;20076;-67
2021/10/20 00:33:45;;;;;;;9.38;6.47;;;17.50;77.60;;;;;;5025433;28;20048;-67
2021/10/20 00:36:12;;;;;;;12.60;8.13;;;17.50;77.50;;;;;;5018376;28;20084;-67
2021/10/20 00:38:38;;;;;;;12.15;6.68;;;17.60;77.50;;;;;;5032593;28;20030;-67
2021/10/20 00:41:04;;;;;;;11.25;7.35;;;17.60;77.50;;;;;;5029918;28;20034;-67
2021/10/20 00:43:30;;;;;;;13.30;8.38;;;17.60;77.50;;;;;;5030779;28;20025;-67
2021/10/20 00:45:56;;;;;;;12.10;7.53;;;17.70;77.50;;;;;;5026626;28;20079;-67
2021/10/20 00:48:21;;;;;;;13.02;8.35;;;17.70;77.60;;;;;;5028143;28;20026;-67
2021/10/20 00:50:47;;;;;;;12.00;7.75;;;17.70;77.50;;;;;;5030905;28;20049;-67
2021/10/20 00:53:13;;;;;;;12.65;8.55;;;17.80;77.60;;;;;;5029856;28;20060;-67
2021/10/20 00:55:39;;;;;;;13.23;8.57;;;17.80;77.50;;;;;;5030348;28;20037;-67
2021/10/20 00:58:05;;;;;;;11.02;7.30;;;17.80;77.40;;;;;;5027822;28;20084;-67
2021/10/20 01:00:32;;;;;;;12.07;8.88;;;17.80;77.50;;;;;;5029489;28;20033;-67
2021/10/20 01:02:57;;;;;;;13.27;8.52;;;17.80;77.40;;;;;;5026480;28;20017;-67
2021/10/20 01:05:25;;;;;;;12.35;8.50;;;17.80;77.40;;;;;;5033800;28;20040;-67
2021/10/20 01:07:51;;;;;;;11.88;8.52;;;17.80;77.40;;;;;;5027786;28;20030;-67
2021/10/20 01:10:17;;;;;;;17.02;12.68;;;17.70;77.40;;;;;;5026759;28;20096;-67
2021/10/20 01:12:43;;;;;;;22.20;14.80;;;17.80;77.40;;;;;;5027709;28;20040;-67
2021/10/20 01:15:23;;;;;;;16.33;11.45;;;17.80;77.50;;;;;;5017615;28;20029;-67
2021/10/20 01:17:50;;;;;;;23.10;17.90;;;17.80;77.70;;;;;;5030189;28;20515;-67
2021/10/20 01:20:18;;;;;;;23.40;19.35;;;17.80;77.60;;;;;;5030528;28;20041;-67
2021/10/20 01:22:44;;;;;;;21.35;17.27;;;17.80;77.70;;;;;;5026935;28;20028;-67
2021/10/20 01:25:11;;;;;;;17.13;10.88;;;17.70;77.70;;;;;;5025873;28;20018;-67
2021/10/20 01:27:37;;;;;;;11.07;7.80;;;17.70;77.90;;;;;;5020724;28;20124;-67
2021/10/20 01:30:05;;;;;;;12.85;7.43;;;17.70;78.00;;;;;;5030623;28;20453;-67
2021/10/20 01:32:31;;;;;;;10.48;7.57;;;17.70;78.10;;;;;;5029043;28;20503;-67
2021/10/20 01:34:56;;;;;;;11.70;8.02;;;17.70;78.10;;;;;;5030541;28;20025;-67
2021/10/20 01:37:24;;;;;;;10.73;6.90;;;17.70;78.20;;;;;;5022979;28;20036;-67
2021/10/20 01:39:51;;;;;;;11.60;7.70;;;17.70;78.10;;;;;;5023028;28;20030;-67
2021/10/20 01:42:17;;;;;;;12.10;8.40;;;17.80;78.20;;;;;;5027603;28;20030;-67
2021/10/20 01:44:43;;;;;;;13.88;8.20;;;17.80;77.90;;;;;;5017821;28;20025;-67
2021/10/20 01:47:09;;;;;;;12.73;7.85;;;17.80;77.80;;;;;;5031216;28;20074;-67
2021/10/20 01:49:34;;;;;;;11.48;7.18;;;17.80;77.90;;;;;;5025739;28;20029;-67
2021/10/20 01:52:00;;;;;;;12.93;8.32;;;17.80;78.00;;;;;;5027865;28;20037;-67
2021/10/20 01:54:26;;;;;;;11.02;7.50;;;17.80;77.80;;;;;;5030066;28;20021;-67
2021/10/20 01:56:53;;;;;;;13.00;7.90;;;17.80;78.20;;;;;;5029962;28;20447;-67
2021/10/20 01:59:19;;;;;;;10.18;6.95;;;17.80;78.20;;;;;;5031870;28;20030;-67
2021/10/20 02:01:45;;;;;;;13.20;8.02;;;17.80;78.40;;;;;;5017753;28;20404;-67
2021/10/20 02:04:12;;;;;;;12.10;8.18;;;17.80;78.60;;;;;;5023856;28;20026;-68
2021/10/20 02:06:41;;;;;;;15.88;8.40;;;17.70;78.70;;;;;;5027260;28;20055;-67
2021/10/20 02:09:08;;;;;;;14.05;8.32;;;17.70;78.80;;;;;;5027243;28;20022;-67
2021/10/20 02:11:35;;;;;;;16.65;8.23;;;17.70;79.00;;;;;;5017620;28;20124;-67
2021/10/20 02:14:02;;;;;;;15.50;8.27;;;17.70;78.90;;;;;;5027830;28;20388;-67
2021/10/20 02:16:28;;;;;;;14.98;8.20;;;17.80;79.10;;;;;;5028209;28;20025;-67
2021/10/20 02:18:54;;;;;;;11.77;8.13;;;17.80;78.80;;;;;;5025844;28;20022;-67
2021/10/20 02:21:20;;;;;;;14.82;8.20;;;17.90;78.80;;;;;;5026938;28;20207;-67
2021/10/20 02:23:46;;;;;;;15.18;8.25;;;17.90;79.00;;;;;;5016230;28;20073;-67
2021/10/20 02:26:12;;;;;;;14.70;8.50;;;17.90;79.00;;;;;;5031153;28;20438;-67
2021/10/20 02:28:38;;;;;;;16.75;9.00;;;17.90;79.00;;;;;;5020637;28;20484;-67
2021/10/20 02:31:03;;;;;;;13.25;7.13;;;17.90;79.30;;;;;;5023238;28;20037;-67
2021/10/20 02:33:29;;;;;;;13.88;8.45;;;17.90;79.90;;;;;;5017273;28;20152;-67
2021/10/20 02:35:55;;;;;;;14.75;9.00;;;17.90;80.20;;;;;;5023210;28;20373;-67
2021/10/20 02:38:21;;;;;;;14.23;9.50;;;17.90;80.50;;;;;;5018715;28;20029;-67
2021/10/20 02:40:47;;;;;;;15.82;9.73;;;17.90;80.50;;;;;;5027944;28;20026;-67
2021/10/20 02:43:12;;;;;;;16.70;9.48;;;17.90;80.50;;;;;;5023141;28;20069;-67
2021/10/20 02:45:38;;;;;;;19.13;9.95;;;17.90;80.50;;;;;;5026917;28;20041;-67
2021/10/20 02:48:04;;;;;;;15.45;9.85;;;17.90;80.30;;;;;;5029106;28;20129;-67
2021/10/20 02:50:30;;;;;;;14.65;9.55;;;17.90;80.40;;;;;;5026298;28;20120;-67
2021/10/20 02:52:57;;;;;;;15.23;9.45;;;17.90;80.50;;;;;;5017282;28;20148;-67
2021/10/20 02:55:23;;;;;;;15.85;9.68;;;17.90;81.10;;;;;;5021945;28;20037;-67
2021/10/20 02:57:50;;;;;;;15.10;9.35;;;17.90;81.80;;;;;;5025076;28;20030;-67
2021/10/20 03:00:15;;;;;;;17.60;9.82;;;17.90;82.60;;;;;;5015926;28;20037;-67
2021/10/20 03:02:43;;;;;;;16.77;9.30;;;17.80;82.70;;;;;;5023175;28;20408;-67
2021/10/20 03:05:09;;;;;;;21.80;11.55;;;17.80;83.40;;;;;;5024849;28;20025;-67
2021/10/20 03:07:36;;;;;;;21.92;11.85;;;17.80;84.30;;;;;;5018959;28;20241;-67
2021/10/20 03:10:05;;;;;;;18.45;11.88;;;17.70;84.50;;;;;;5018403;28;20076;-67
2021/10/20 03:12:31;;;;;;;20.70;12.15;;;17.70;90.10;;;;;;5026356;28;20045;-67
2021/10/20 03:14:57;;;;;;;20.40;12.00;;;17.60;89.20;;;;;;5018070;28;20444;-67
2021/10/20 03:17:24;;;;;;;23.45;12.93;;;17.70;88.30;;;;;;5027749;28;20037;-67
2021/10/20 03:19:50;;;;;;;23.90;12.60;;;17.70;87.50;;;;;;5022452;28;20037;-67
2021/10/20 03:22:16;;;;;;;21.08;12.07;;;17.70;87.20;;;;;;5028938;28;20026;-67
2021/10/20 03:24:41;;;;;;;21.05;12.40;;;17.70;87.20;;;;;;5026976;28;20120;-67
2021/10/20 03:27:07;;;;;;;19.90;11.50;;;17.70;87.20;;;;;;5027887;28;20057;-67
2021/10/20 03:29:33;;;;;;;20.10;10.90;;;17.70;87.30;;;;;;5026593;28;20552;-67
2021/10/20 03:31:59;;;;;;;21.27;11.65;;;17.70;87.40;;;;;;5017211;28;20034;-67
2021/10/20 03:34:24;;;;;;;20.92;11.88;;;17.70;87.40;;;;;;5022952;28;20033;-67
2021/10/20 03:36:50;;;;;;;18.20;10.88;;;17.70;87.60;;;;;;5023459;28;20097;-67
2021/10/20 03:39:16;;;;;;;19.73;9.48;;;17.70;87.70;;;;;;5026210;28;20121;-67
2021/10/20 03:41:42;;;;;;;23.40;11.65;;;17.70;87.80;;;;;;5016258;28;20108;-67
2021/10/20 03:44:07;;;;;;;18.92;11.80;;;17.60;87.90;;;;;;5019459;28;20043;-67
2021/10/20 03:46:33;;;;;;;23.27;12.70;;;17.60;88.10;;;;;;5027246;28;20408;-67
2021/10/20 03:48:59;;;;;;;22.42;10.02;;;17.60;88.30;;;;;;5026420;28;20029;-67
2021/10/20 03:51:25;;;;;;;18.38;8.73;;;17.60;88.30;;;;;;5026473;28;20555;-67
2021/10/20 03:53:50;;;;;;;22.20;11.35;;;17.60;88.40;;;;;;5029651;28;20096;-67
2021/10/20 03:56:16;;;;;;;20.73;13.05;;;17.60;88.60;;;;;;5030428;28;20030;-67
2021/10/20 03:58:42;;;;;;;26.88;14.45;;;17.60;88.70;;;;;;5024862;28;20056;-67
2021/10/20 04:01:08;;;;;;;22.95;11.65;;;17.50;88.70;;;;;;5030017;28;20112;-67
2021/10/20 04:03:33;;;;;;;18.80;11.32;;;17.50;88.90;;;;;;5026480;28;20017;-68
2021/10/20 04:05:59;;;;;;;24.02;12.30;;;17.40;89.00;;;;;;5026228;28;20033;-67
2021/10/20 04:08:25;;;;;;;13.73;8.35;;;17.40;89.20;;;;;;5028521;28;20017;-67
2021/10/20 04:10:50;;;;;;;24.80;13.10;;;17.40;89.40;;;;;;5015729;28;20089;-67
2021/10/20 04:13:16;;;;;;;20.60;10.77;;;17.50;89.30;;;;;;5015475;28;20026;-67
2021/10/20 04:15:42;;;;;;;22.33;11.00;;;17.50;89.30;;;;;;5021840;28;20511;-67
2021/10/20 04:18:08;;;;;;;20.48;11.25;;;17.50;89.40;;;;;;5012829;28;20506;-67
2021/10/20 04:20:33;;;;;;;26.17;13.52;;;17.50;89.30;;;;;;5012580;28;20058;-67
2021/10/20 04:23:00;;;;;;;15.18;8.77;;;17.50;89.40;;;;;;5016078;28;20046;-67
2021/10/20 04:25:26;;;;;;;25.77;14.25;;;17.50;89.50;;;;;;5015269;28;20044;-67
2021/10/20 04:27:52;;;;;;;26.80;14.20;;;17.50;89.50;;;;;;5016402;28;20468;-67
2021/10/20 04:30:19;;;;;;;28.35;15.48;;;17.50;89.50;;;;;;5024878;28;20449;-67
2021/10/20 04:32:45;;;;;;;26.92;14.80;;;17.50;89.50;;;;;;5027333;28;20056;-66
2021/10/20 04:35:13;;;;;;;26.75;14.73;;;17.50;89.30;;;;;;5028812;28;20075;-67
2021/10/20 04:37:39;;;;;;;23.92;13.85;;;17.50;89.40;;;;;;5018652;28;20455;-67
2021/10/20 04:40:07;;;;;;;26.60;14.85;;;17.50;89.40;;;;;;5021424;28;20421;-67
2021/10/20 04:42:34;;;;;;;27.30;14.75;;;17.50;89.20;;;;;;5016218;28;20460;-66
2021/10/20 04:45:00;;;;;;;25.05;13.70;;;17.60;89.20;;;;;;5021176;28;20022;-67
2021/10/20 04:47:26;;;;;;;25.20;13.77;;;17.60;88.70;;;;;;5026702;28;20033;-67
2021/10/20 04:49:52;;;;;;;24.20;13.23;;;17.60;88.10;;;;;;5023409;28;20143;-67
2021/10/20 04:52:23;;;;;;;23.85;12.80;;;17.70;87.80;;;;;;5026690;28;20192;-67
2021/10/20 04:54:50;;;;;;;21.05;12.02;;;17.70;87.50;;;;;;5023554;28;20084;-67
2021/10/20 04:57:16;;;;;;;24.88;14.35;;;17.70;87.20;;;;;;5013563;28;20073;-67
2021/10/20 04:59:41;;;;;;;24.30;13.25;;;17.70;87.00;;;;;;5026972;28;20703;-67
2021/10/20 05:02:07;;;;;;;29.58;14.10;;;17.70;87.00;;;;;;5025186;28;20060;-66
2021/10/20 05:04:33;;;;;;;27.60;13.55;;;17.70;86.70;;;;;;5025519;28;20029;-66
2021/10/20 05:06:59;;;;;;;24.38;13.93;;;17.70;86.60;;;;;;5025352;28;20036;-67
2021/10/20 05:09:25;;;;;;;27.52;14.23;;;17.70;86.80;;;;;;5026958;28;20096;-67
2021/10/20 05:11:51;;;;;;;28.75;13.57;;;17.60;86.80;;;;;;5026588;28;20592;-67
2021/10/20 05:14:17;;;;;;;24.02;13.18;;;17.60;87.00;;;;;;5028337;28;20032;-67
2021/10/20 05:16:43;;;;;;;23.33;13.07;;;17.60;87.00;;;;;;5022463;28;20473;-69
2021/10/20 05:19:09;;;;;;;22.60;13.20;;;17.60;87.10;;;;;;5025621;28;20396;-69
2021/10/20 05:21:35;;;;;;;23.67;11.75;;;17.70;86.90;;;;;;5026277;28;20123;-69
2021/10/20 05:24:01;;;;;;;24.88;12.10;;;17.70;86.90;;;;;;5026648;28;20038;-67
2021/10/20 05:26:27;;;;;;;24.42;12.15;;;17.80;86.90;;;;;;5036442;28;20028;-67
2021/10/20 05:28:52;;;;;;;20.88;11.85;;;17.80;86.70;;;;;;5027269;28;20030;-67
2021/10/20 05:31:18;;;;;;;22.58;11.88;;;17.80;86.60;;;;;;5031607;28;20492;-67
2021/10/20 05:33:44;;;;;;;24.38;11.40;;;17.90;86.60;;;;;;5027350;28;20064;-65
2021/10/20 05:36:10;;;;;;;21.33;10.82;;;17.90;86.40;;;;;;5024143;28;20026;-66
2021/10/20 05:38:37;;;;;;;20.77;10.30;;;17.80;86.30;;;;;;5023415;28;20120;-66
2021/10/20 05:41:03;;;;;;;19.20;9.80;;;17.90;86.40;;;;;;5019253;28;20030;-67
2021/10/20 05:43:29;;;;;;;20.27;10.27;;;17.90;86.30;;;;;;5021727;28;20037;-67
2021/10/20 05:45:55;;;;;;;18.40;9.38;;;17.90;86.20;;;;;;5029185;28;20018;-67
2021/10/20 05:48:24;;;;;;;20.60;9.63;;;17.90;86.20;;;;;;5030743;28;20017;-66
2021/10/20 05:50:51;;;;;;;20.33;9.43;;;17.90;86.30;;;;;;5024318;28;20128;-67
2021/10/20 05:53:17;;;;;;;19.45;9.05;;;17.90;86.10;;;;;;5029035;28;20021;-66
2021/10/20 05:55:43;;;;;;;23.77;9.10;;;18.00;86.30;;;;;;5029179;28;20091;-67
2021/10/20 05:58:10;;;;;;;16.80;8.27;;;18.00;86.30;;;;;;5028231;28;20079;-67
2021/10/20 06:00:36;;;;;;;22.05;8.93;;;18.00;86.30;;;;;;5029345;28;20033;-67
2021/10/20 06:03:02;;;;;;;26.30;8.40;;;18.00;86.20;;;;;;5059022;28;20037;-67
2021/10/20 06:05:28;;;;;;;18.85;8.13;;;18.00;86.20;;;;;;5029890;28;20472;-67
2021/10/20 06:07:54;;;;;;;20.30;8.73;;;18.10;86.40;;;;;;5017727;28;20030;-67
2021/10/20 06:10:20;;;;;;;23.10;9.00;;;18.00;86.30;;;;;;5017110;28;20022;-67
2021/10/20 06:12:45;;;;;;;17.88;7.70;;;18.10;86.30;;;;;;5017801;28;20107;-67
2021/10/20 06:15:12;;;;;;;19.45;7.43;;;18.10;86.20;;;;;;5015179;28;20097;-67
2021/10/20 06:17:38;;;;;;;18.02;7.13;;;18.10;86.40;;;;;;5028155;28;20037;-67
2021/10/20 06:20:06;;;;;;;20.20;6.60;;;18.10;86.40;;;;;;5017026;28;20575;-67
2021/10/20 06:22:33;;;;;;;18.27;6.65;;;18.10;86.60;;;;;;5017015;28;20038;-66
2021/10/20 06:24:58;;;;;;;19.13;6.70;;;18.10;86.60;;;;;;5017034;28;20028;-67
2021/10/20 06:27:25;;;;;;;18.27;6.53;;;18.10;86.90;;;;;;5015193;28;20022;-67
2021/10/20 06:29:51;;;;;;;21.83;7.00;;;18.10;87.00;;;;;;5029213;28;20396;-67
2021/10/20 06:32:17;;;;;;;24.08;6.15;;;18.10;87.00;;;;;;5016933;28;20455;-67
2021/10/20 06:34:43;;;;;;;18.55;5.93;;;18.10;87.00;;;;;;5017378;28;20056;-67
2021/10/20 06:37:09;;;;;;;20.95;5.68;;;18.00;87.00;;;;;;5016750;28;20044;-67
2021/10/20 06:39:35;;;;;;;21.70;6.35;;;18.00;87.10;;;;;;5017128;28;20485;-67
2021/10/20 06:42:01;;;;;;;22.10;5.68;;;18.00;86.90;;;;;;5026344;28;20034;-67
2021/10/20 06:44:27;;;;;;;18.23;4.95;;;18.00;86.90;;;;;;5029264;28;20028;-67
2021/10/20 06:46:53;;;;;;;21.70;5.55;;;18.00;86.80;;;;;;5017670;28;20033;-67
2021/10/20 06:49:19;;;;;;;14.68;5.10;;;18.10;86.80;;;;;;5018263;28;20052;-67
2021/10/20 06:51:45;;;;;;;18.27;4.85;;;18.10;86.70;;;;;;5015840;28;20069;-67
2021/10/20 06:54:17;;;;;;;18.25;4.80;;;18.10;86.40;;;;;;5027678;28;20026;-67
2021/10/20 06:56:45;;;;;;;17.10;4.40;;;18.10;86.30;;;;;;5014055;28;20490;-67
2021/10/20 06:59:10;;;;;;;18.90;4.78;;;18.10;86.20;;;;;;5016621;28;20033;-67
2021/10/20 07:01:36;;;;;;;17.30;4.53;;;18.20;86.10;;;;;;5022972;28;20091;-67
2021/10/20 07:04:02;;;;;;;16.95;4.75;;;18.20;86.00;;;;;;5025831;28;20527;-67
2021/10/20 07:06:28;;;;;;;18.00;4.85;;;18.20;85.90;;;;;;5027427;28;20025;-67
2021/10/20 07:08:57;;;;;;;18.75;4.72;;;18.20;85.70;;;;;;5011915;28;20025;-67
2021/10/20 07:11:23;;;;;;;17.60;4.40;;;18.30;85.70;;;;;;5027702;28;20485;-67
2021/10/20 07:13:49;;;;;;;17.75;4.60;;;18.30;85.50;;;;;;5016601;28;20045;-67
2021/10/20 07:16:16;;;;;;;18.88;4.25;;;18.30;85.40;;;;;;5019610;28;20021;-67
2021/10/20 07:18:42;;;;;;;16.80;4.70;;;18.30;85.40;;;;;;5024699;28;20101;-67
2021/10/20 07:21:07;;;;;;;20.77;4.30;;;18.30;85.40;;;;;;5027586;28;20125;-67
2021/10/20 07:23:33;;;;;;;22.38;6.55;;;18.30;85.20;;;;;;5028061;28;20033;-67
2021/10/20 07:25:59;;;;;;;17.80;4.95;;;18.40;85.10;;;;;;5016779;28;20033;-67
2021/10/20 07:28:25;;;;;;;20.27;4.40;;;18.50;84.80;;;;;;5055279;28;20029;-67
2021/10/20 07:30:51;;;;;;;19.83;4.45;;;18.70;83.80;;;;;;5024343;28;20513;-67
2021/10/20 07:33:16;;;;;;;20.52;4.20;;;18.60;83.60;;;;;;5014452;28;20030;-67
2021/10/20 07:35:42;;;;;;;19.73;4.88;;;18.60;83.50;;;;;;5012901;28;20025;-67
2021/10/20 07:38:08;;;;;;;22.20;4.40;;;18.70;83.40;;;;;;5015619;28;20037;-67
2021/10/20 07:40:34;;;;;;;21.92;5.00;;;18.80;83.10;;;;;;5016072;28;20397;-67
2021/10/20 07:42:59;;;;;;;22.23;4.47;;;18.80;83.00;;;;;;5016050;28;20088;-67
2021/10/20 07:45:25;;;;;;;21.00;4.65;;;18.90;82.70;;;;;;5015896;28;20032;-67
2021/10/20 07:47:52;;;;;;;18.02;3.80;;;18.90;82.30;;;;;;5015167;28;20033;-67
2021/10/20 07:50:23;;;;;;;19.50;4.55;;;19.00;81.70;;;;;;5015427;28;20037;-67
2021/10/20 07:52:49;;;;;;;17.95;3.72;;;19.10;81.50;;;;;;5025685;28;20132;-67
2021/10/20 07:55:17;;;;;;;17.70;4.22;;;19.00;81.50;;;;;;5020920;28;20038;-67
2021/10/20 07:57:44;;;;;;;22.15;3.95;;;19.20;81.10;;;;;;5018467;28;20397;-67
2021/10/20 08:00:11;;;;;;;17.60;3.80;;;19.40;80.20;;;;;;5028633;28;20028;-67
2021/10/20 08:02:37;;;;;;;17.55;3.70;;;19.80;79.00;;;;;;5013041;28;20029;-67
2021/10/20 08:05:04;;;;;;;22.38;3.88;;;21.00;76.20;;;;;;5015572;28;20045;-67
2021/10/20 08:07:30;;;;;;;15.82;3.40;;;21.20;73.70;;;;;;5015018;28;20025;-67
2021/10/20 08:09:56;;;;;;;18.42;3.60;;;21.50;72.30;;;;;;5016674;28;20033;-67
2021/10/20 08:12:22;;;;;;;19.65;3.58;;;21.60;71.20;;;;;;5026202;28;20033;-67
2021/10/20 08:14:52;;;;;;;18.75;3.58;;;21.60;70.70;;;;;;5027738;28;20045;-67
2021/10/20 08:17:19;;;;;;;14.77;3.47;;;21.50;70.30;;;;;;5015314;28;20029;-67
2021/10/20 08:19:45;;;;;;;14.35;3.38;;;21.50;70.70;;;;;;5023065;28;20532;-67
2021/10/20 08:22:11;;;;;;;16.20;3.10;;;21.40;71.20;;;;;;5023417;28;20472;-67
2021/10/20 08:24:37;;;;;;;19.63;3.50;;;21.20;70.90;;;;;;5025388;28;20138;-67
2021/10/20 08:27:03;;;;;;;14.77;3.47;;;21.10;71.00;;;;;;5026612;28;20044;-67
2021/10/20 08:29:29;;;;;;;14.70;3.00;;;20.90;71.40;;;;;;5014169;28;20030;-67
2021/10/20 08:31:55;;;;;;;18.60;3.40;;;20.80;71.70;;;;;;5015660;28;20119;-67
2021/10/20 08:34:22;;;;;;;18.52;3.78;;;20.60;72.10;;;;;;5014854;28;20030;-67
2021/10/20 08:36:48;;;;;;;17.95;3.20;;;20.40;72.70;;;;;;5014707;28;20026;-67
2021/10/20 08:39:15;;;;;;;16.00;3.45;;;20.30;73.40;;;;;;5026399;28;20112;-67
2021/10/20 08:41:41;;;;;;;16.90;3.42;;;20.10;73.70;;;;;;5012946;28;20018;-67
2021/10/20 08:44:07;;;;;;;21.73;3.72;;;20.00;74.30;;;;;;5015329;28;20040;-67
2021/10/20 08:46:33;;;;;;;21.08;3.65;;;19.90;74.10;;;;;;5024511;28;20041;-67
2021/10/20 08:49:02;;;;;;;14.73;3.40;;;19.80;74.70;;;;;;5023295;28;20029;-67
2021/10/20 08:51:28;;;;;;;30.10;4.60;;;19.80;74.50;;;;;;5027856;28;20032;-67
2021/10/20 08:53:56;;;;;;;17.80;3.08;;;19.80;74.40;;;;;;5026573;28;20096;-67
2021/10/20 08:56:22;;;;;;;18.67;4.13;;;19.90;73.90;;;;;;5014855;28;20416;-67
2021/10/20 08:58:47;;;;;;;20.15;3.60;;;19.90;73.60;;;;;;5049944;28;20030;-67
2021/10/20 09:01:13;;;;;;;18.00;3.58;;;19.90;73.80;;;;;;5018842;28;20026;-67
2021/10/20 09:03:39;;;;;;;17.23;3.15;;;20.00;73.20;;;;;;5017321;28;20029;-67
2021/10/20 09:06:05;;;;;;;17.70;3.13;;;20.50;72.50;;;;;;5030027;28;20032;-67
2021/10/20 09:08:42;;;;;;;19.17;3.20;;;20.50;71.60;;;;;;5017307;28;20418;-67
2021/10/20 09:11:34;;;;;;;16.45;3.40;;;20.50;71.90;;;;;;5018548;28;20042;-67
2021/10/20 09:14:03;;;;;;;17.77;3.55;;;20.50;71.80;;;;;;5028481;28;20473;-67
2021/10/20 09:16:30;;;;;;;15.43;2.83;;;20.70;71.00;;;;;;5027076;28;20489;-67
2021/10/20 09:18:58;;;;;;;17.23;3.13;;;20.80;69.90;;;;;;5025852;28;20038;-67
2021/10/20 09:21:25;;;;;;;16.92;3.15;;;21.20;69.20;;;;;;5018260;28;20049;-67
2021/10/20 09:23:51;;;;;;;14.32;3.30;;;21.60;67.20;;;;;;5014450;28;20026;-67
2021/10/20 09:26:17;;;;;;;17.10;3.17;;;22.50;66.00;;;;;;5018117;28;20072;-67
2021/10/20 09:28:42;;;;;;;18.95;3.30;;;24.30;60.10;;;;;;5018596;28;20109;-67
2021/10/20 09:31:10;;;;;;;15.10;4.85;;;24.10;58.60;;;;;;5020220;28;20044;-68
2021/10/20 09:33:37;;;;;;;17.17;3.30;;;25.30;58.40;;;;;;5017519;28;20509;-68
2021/10/20 09:36:10;;;;;;;16.65;3.35;;;25.10;55.60;;;;;;5014961;28;20048;-67
2021/10/20 09:38:38;;;;;;;20.10;3.80;;;24.60;56.40;;;;;;5015869;28;20516;-67
2021/10/20 09:41:09;;;;;;;14.25;3.33;;;24.20;57.80;;;;;;5018398;28;20607;-67
2021/10/20 09:43:53;;;;;;;18.17;4.90;;;24.00;57.90;;;;;;5024421;28;20056;-67
2021/10/20 09:46:31;;;;;;;18.25;4.15;;;26.70;55.20;;;;;;5022207;28;20022;-68
2021/10/20 09:49:02;;;;;;;16.50;5.07;;;27.50;51.70;;;;;;5017680;28;20045;-68
2021/10/20 09:51:28;;;;;;;15.73;3.08;;;26.70;51.10;;;;;;5015568;28;20030;-68
2021/10/20 09:53:54;;;;;;;19.58;3.25;;;26.10;51.30;;;;;;5030349;28;20037;-68
2021/10/20 09:56:22;;;;;;;18.70;3.25;;;25.60;52.00;;;;;;5029121;28;20026;-68
2021/10/20 09:58:49;;;;;;;13.75;3.15;;;25.10;53.10;;;;;;5026593;28;20104;-67
2021/10/20 10:01:21;;;;;;;16.83;3.28;;;24.70;53.60;;;;;;5023484;28;20049;-67
2021/10/20 10:03:50;;;;;;;16.25;3.40;;;24.40;55.10;;;;;;5021175;28;20041;-68
2021/10/20 10:06:16;;;;;;;15.27;3.15;;;24.10;55.60;;;;;;5028346;28;20025;-67
2021/10/20 10:08:43;;;;;;;15.02;3.00;;;23.90;56.00;;;;;;5029851;28;20025;-67
2021/10/20 10:11:09;;;;;;;17.63;3.13;;;23.70;56.50;;;;;;5016906;28;20297;-67
2021/10/20 10:13:55;;;;;;;19.65;3.13;;;23.50;56.80;;;;;;5017576;28;20055;-67
2021/10/20 10:16:24;;;;;;;17.17;3.20;;;23.30;57.60;;;;;;5017717;28;20393;-67
2021/10/20 10:18:55;;;;;;;15.90;3.15;;;23.10;58.10;;;;;;5017680;28;20030;-67
2021/10/20 10:21:36;;;;;;;12.65;2.58;;;23.00;58.10;;;;;;5026524;28;20046;-67
2021/10/20 10:24:05;;;;;;;16.75;3.22;;;22.90;58.50;;;;;;5013882;28;20026;-67
2021/10/20 10:26:36;;;;;;;16.83;3.35;;;22.90;59.00;;;;;;5015685;28;20021;-67
2021/10/20 10:29:12;;;;;;;17.60;3.10;;;22.90;58.80;;;;;;5027441;28;20100;-67
2021/10/20 10:31:43;;;;;;;14.40;3.35;;;23.00;58.20;;;;;;5019057;28;20041;-67
2021/10/20 10:34:28;;;;;;;14.23;3.00;;;23.10;58.00;;;;;;5023475;28;20344;-67
2021/10/20 10:36:58;;;;;;;18.98;3.20;;;23.00;58.10;;;;;;5030113;28;20032;-68
2021/10/20 10:39:24;;;;;;;19.65;3.10;;;22.90;58.40;;;;;;5030406;28;20025;-67
2021/10/20 10:41:56;;;;;;;15.27;2.90;;;22.70;58.90;;;;;;5029686;28;20042;-68
2021/10/20 10:44:26;;;;;;;15.30;2.90;;;22.60;59.20;;;;;;5016778;28;20117;-68
2021/10/20 10:47:15;;;;;;;16.77;3.00;;;22.40;59.30;;;;;;5023555;28;20026;-68
2021/10/20 10:49:46;;;;;;;18.73;3.35;;;22.20;60.30;;;;;;5026616;28;20041;-69
2021/10/20 10:52:27;;;;;;;17.13;3.15;;;22.00;60.80;;;;;;5021580;28;20042;-67
2021/10/20 10:55:07;;;;;;;14.82;2.80;;;21.90;61.30;;;;;;5017050;28;20088;-68
2021/10/20 10:57:52;;;;;;;17.67;3.03;;;21.80;61.80;;;;;;5017498;28;20038;-68
2021/10/20 11:00:20;;;;;;;16.00;2.88;;;21.60;62.60;;;;;;5027618;28;20038;-69
2021/10/20 11:03:13;;;;;;;17.90;3.45;;;21.50;63.00;;;;;;5013875;28;20033;-68
2021/10/20 11:05:49;;;;;;;15.52;3.13;;;21.50;63.10;;;;;;5028363;28;20373;-68
2021/10/20 11:08:20;;;;;;;14.35;2.75;;;21.50;63.20;;;;;;5028947;28;20045;-68
2021/10/20 11:10:47;;;;;;;16.25;2.65;;;21.50;62.60;;;;;;5026116;28;20021;-67
2021/10/20 11:13:13;;;;;;;17.10;3.20;;;21.60;62.70;;;;;;5028955;28;20718;-67
2021/10/20 11:15:40;;;;;;;16.10;3.15;;;21.50;62.40;;;;;;5026911;28;20037;-67
2021/10/20 11:18:06;;;;;;;19.10;2.92;;;21.60;62.00;;;;;;5028453;28;20108;-68
2021/10/20 11:20:35;;;;;;;15.18;2.55;;;21.60;61.80;;;;;;5030365;28;20592;-68
2021/10/20 11:23:04;;;;;;;17.02;2.70;;;21.70;61.90;;;;;;5029212;28;20049;-68
2021/10/20 11:25:31;;;;;;;17.15;2.90;;;21.70;61.50;;;;;;5024733;28;20018;-68
2021/10/20 11:27:58;;;;;;;15.55;3.25;;;21.60;61.60;;;;;;5023757;28;20026;-69
2021/10/20 11:30:27;;;;;;;17.98;2.95;;;21.70;62.00;;;;;;5024853;28;20028;-69
2021/10/20 11:32:55;;;;;;;17.73;3.15;;;21.70;61.80;;;;;;5014186;28;20416;-70
2021/10/20 11:35:29;;;;;;;17.40;2.67;;;21.70;61.10;;;;;;5030266;28;20082;-67
2021/10/20 11:38:01;;;;;;;18.10;2.92;;;21.70;60.60;;;;;;5017078;28;20029;-68
2021/10/20 11:40:56;;;;;;;21.35;2.97;;;21.70;60.90;;;;;;5019640;28;20529;-69
2021/10/20 11:43:27;;;;;;;18.88;2.90;;;21.70;61.10;;;;;;5018925;28;20041;-68
2021/10/20 11:45:53;;;;;;;15.77;2.83;;;21.60;61.50;;;;;;5027307;28;20516;-68
2021/10/20 11:48:24;;;;;;;19.73;3.13;;;21.70;61.50;;;;;;5027218;28;20031;-68
2021/10/20 11:50:55;;;;;;;20.33;3.00;;;21.80;61.10;;;;;;5013044;28;20029;-68
2021/10/20 11:53:22;;;;;;;20.58;2.90;;;21.80;61.30;;;;;;5015142;28;20041;-69
2021/10/20 11:55:50;;;;;;;21.45;3.65;;;21.80;61.20;;;;;;5024827;28;20033;-68
2021/10/20 11:58:27;;;;;;;13.82;2.50;;;21.80;60.80;;;;;;5029110;28;20040;-67
2021/10/20 12:00:58;;;;;;;20.58;3.03;;;21.80;61.00;;;;;;5023894;28;20032;-68
2021/10/20 12:03:42;;;;;;;17.30;2.90;;;21.80;60.90;;;;;;5026545;28;20021;-67
2021/10/20 12:06:13;;;;;;;18.27;3.03;;;21.90;60.40;;;;;;5012297;28;20052;-68
2021/10/20 12:08:45;;;;;;;17.48;2.78;;;22.00;60.10;;;;;;5013218;28;20026;-68
2021/10/20 12:11:14;;;;;;;15.73;2.67;;;22.00;60.00;;;;;;5014930;28;20092;-68
2021/10/20 12:13:39;;;;;;;16.17;2.60;;;22.00;60.30;;;;;;5026458;28;20049;-68
2021/10/20 12:16:11;;;;;;;21.95;2.83;;;22.00;59.80;;;;;;5029297;28;20088;-67
2021/10/20 12:18:40;;;;;;;18.63;2.88;;;22.00;60.00;;;;;;5026773;28;20042;-67
2021/10/20 12:21:11;;;;;;;17.58;2.42;;;21.90;59.80;;;;;;5026000;28;20107;-68
2021/10/20 12:23:37;;;;;;;15.13;2.38;;;22.00;59.50;;;;;;5027386;28;20025;-68
2021/10/20 12:26:05;;;;;;;17.27;2.92;;;22.00;59.50;;;;;;5035172;28;20033;-68
2021/10/20 12:28:32;;;;;;;19.10;2.72;;;22.00;59.80;;;;;;5024971;28;20029;-68
2021/10/20 12:31:06;;;;;;;20.88;2.70;;;21.90;60.10;;;;;;5024728;28;20516;-69
2021/10/20 12:33:38;;;;;;;19.00;2.80;;;21.90;60.40;;;;;;5022122;28;20028;-69
2021/10/20 12:36:05;;;;;;;11.10;2.15;;;21.90;60.30;;;;;;5026648;28;20080;-69
2021/10/20 12:38:40;;;;;;;15.15;2.60;;;21.90;59.80;;;;;;5013756;28;20030;-69